createdAt,value
2023-12-16T00:02:22.072Z,6.78
2023-12-16T00:04:48.700Z,7.65
2023-12-16T00:07:15.296Z,5.68
2023-12-16T00:09:41.913Z,5.95
2023-12-16T00:12:08.808Z,5.57
2023-12-16T00:14:37.355Z,5.57
2023-12-16T00:17:04.115Z,5.30
2023-12-16T00:19:31.533Z,5.18
2023-12-16T00:21:58.343Z,6.35
2023-12-16T00:24:24.962Z,7.32
2023-12-16T00:26:51.555Z,6.63
2023-12-16T00:29:18.189Z,7.80
2023-12-16T00:31:45.024Z,8.30
2023-12-16T00:34:11.924Z,6.20
2023-12-16T00:36:38.603Z,5.60
2023-12-16T00:39:05.183Z,6.60
2023-12-16T00:41:31.780Z,5.18
2023-12-16T00:43:58.508Z,5.03
2023-12-16T00:46:25.061Z,9.95
2023-12-16T00:48:51.774Z,8.95
2023-12-16T00:51:20.604Z,6.90
2023-12-16T00:53:48.030Z,6.72
2023-12-16T00:56:14.551Z,7.07
2023-12-16T00:58:41.067Z,5.88
2023-12-16T01:01:07.679Z,5.10
2023-12-16T01:03:35.348Z,5.38
2023-12-16T01:06:02.019Z,5.25
2023-12-16T01:08:28.604Z,5.75
2023-12-16T01:10:55.678Z,6.65
2023-12-16T01:13:22.313Z,6.15
2023-12-16T01:15:48.930Z,5.35
2023-12-16T01:18:15.628Z,5.82
2023-12-16T01:20:42.397Z,5.53
2023-12-16T01:23:09.130Z,5.13
2023-12-16T01:25:35.908Z,5.22
2023-12-16T01:28:03.158Z,4.43
2023-12-16T01:30:30.382Z,5.40
2023-12-16T01:32:57.115Z,5.97
2023-12-16T01:35:23.728Z,4.95
2023-12-16T01:37:50.226Z,4.88
2023-12-16T01:40:17.036Z,5.32
2023-12-16T01:42:46.239Z,6.45
2023-12-16T01:45:12.949Z,5.97
2023-12-16T01:47:39.830Z,6.30
2023-12-16T01:50:06.929Z,5.43
2023-12-16T01:52:33.825Z,5.65
2023-12-16T01:55:00.460Z,5.63
2023-12-16T01:57:27.141Z,5.82
2023-12-16T01:59:54.067Z,6.90
2023-12-16T02:02:21.705Z,6.40
2023-12-16T02:04:48.727Z,6.18
2023-12-16T02:07:15.329Z,6.82
2023-12-16T02:09:41.962Z,6.65
2023-12-16T02:12:08.557Z,7.43
2023-12-16T02:14:35.065Z,6.78
2023-12-16T02:17:01.560Z,7.38
2023-12-16T02:19:29.172Z,6.38
2023-12-16T02:21:55.841Z,7.93
2023-12-16T02:24:22.833Z,8.48
2023-12-16T02:26:49.457Z,7.60
2023-12-16T02:29:18.790Z,10.57
2023-12-16T02:31:45.706Z,9.18
2023-12-16T02:34:12.514Z,9.15
2023-12-16T02:36:39.250Z,9.63
2023-12-16T02:39:05.837Z,8.55
2023-12-16T02:41:32.489Z,9.23
2023-12-16T02:43:59.412Z,7.72
2023-12-16T02:46:26.100Z,8.77
2023-12-16T02:48:52.927Z,8.25
2023-12-16T02:51:20.212Z,8.95
2023-12-16T02:53:47.124Z,8.88
2023-12-16T02:56:14.045Z,8.30
2023-12-16T02:58:40.798Z,8.45
2023-12-16T03:01:07.970Z,9.70
2023-12-16T03:03:35.300Z,10.02
2023-12-16T03:06:08.791Z,9.38
2023-12-16T03:08:35.936Z,8.63
2023-12-16T03:11:03.532Z,10.55
2023-12-16T03:13:30.294Z,9.20
2023-12-16T03:15:57.297Z,9.18
2023-12-16T03:18:23.896Z,9.80
2023-12-16T03:20:50.680Z,9.52
2023-12-16T03:23:17.295Z,9.73
2023-12-16T03:25:46.528Z,10.10
2023-12-16T03:28:13.427Z,9.32
2023-12-16T03:30:40.781Z,10.63
2023-12-16T03:33:10.534Z,10.40
2023-12-16T03:35:37.251Z,9.68
2023-12-16T03:38:04.352Z,10.45
2023-12-16T03:40:31.791Z,10.75
2023-12-16T03:42:59.434Z,10.27
2023-12-16T03:45:26.019Z,10.35
2023-12-16T03:47:52.656Z,10.35
2023-12-16T03:50:19.379Z,10.32
2023-12-16T03:52:46.039Z,10.20
2023-12-16T03:55:13.644Z,11.77
2023-12-16T03:57:40.591Z,10.68
2023-12-16T04:00:09.760Z,11.52
2023-12-16T04:02:36.706Z,10.52
2023-12-16T04:05:03.681Z,11.57
2023-12-16T04:07:30.397Z,11.95
2023-12-16T04:09:57.128Z,11.48
2023-12-16T04:12:23.784Z,11.25
2023-12-16T04:14:50.382Z,11.82
2023-12-16T04:17:16.965Z,12.25
2023-12-16T04:19:50.815Z,11.50
2023-12-16T04:22:17.478Z,11.40
2023-12-16T04:24:44.163Z,12.43
2023-12-16T04:27:10.785Z,11.75
2023-12-16T04:29:37.333Z,11.43
2023-12-16T04:32:04.257Z,10.77
2023-12-16T04:34:30.920Z,12.07
2023-12-16T04:36:57.484Z,12.27
2023-12-16T04:39:24.062Z,12.30
2023-12-16T04:41:50.703Z,12.93
2023-12-16T04:44:17.505Z,12.23
2023-12-16T04:46:44.073Z,11.70
2023-12-16T04:49:10.758Z,11.30
2023-12-16T04:51:37.293Z,13.27
2023-12-16T04:54:04.024Z,14.35
2023-12-16T04:56:30.570Z,13.70
2023-12-16T04:58:57.114Z,18.27
2023-12-16T05:01:23.814Z,23.15
2023-12-16T05:03:50.534Z,29.60
2023-12-16T05:06:17.739Z,22.75
2023-12-16T05:08:44.392Z,27.55
2023-12-16T05:11:11.004Z,20.83
2023-12-16T05:13:37.551Z,18.60
2023-12-16T05:16:05.207Z,15.55
2023-12-16T05:18:32.680Z,14.02
2023-12-16T05:20:59.365Z,13.40
2023-12-16T05:23:25.899Z,13.23
2023-12-16T05:25:52.482Z,13.40
2023-12-16T05:28:19.149Z,12.73
2023-12-16T05:30:46.630Z,12.10
2023-12-16T05:33:13.536Z,11.50
2023-12-16T05:35:40.267Z,11.25
2023-12-16T05:38:06.827Z,11.63
2023-12-16T05:40:33.527Z,10.75
2023-12-16T05:43:00.300Z,11.35
2023-12-16T05:45:28.252Z,10.80
2023-12-16T05:47:54.876Z,9.75
2023-12-16T05:50:21.558Z,11.30
2023-12-16T05:52:48.164Z,9.88
2023-12-16T05:55:14.924Z,10.70
2023-12-16T05:57:41.797Z,10.00
2023-12-16T06:00:09.819Z,10.20
2023-12-16T06:02:36.867Z,10.35
2023-12-16T06:05:04.922Z,9.80
2023-12-16T06:07:31.607Z,11.50
2023-12-16T06:09:58.267Z,9.80
2023-12-16T06:12:24.863Z,10.07
2023-12-16T06:14:51.515Z,8.88
2023-12-16T06:17:18.032Z,10.90
2023-12-16T06:19:44.880Z,10.30
2023-12-16T06:22:11.425Z,9.52
2023-12-16T06:24:37.955Z,9.45
2023-12-16T06:27:04.726Z,10.10
2023-12-16T06:29:31.628Z,10.23
2023-12-16T06:31:58.226Z,12.77
2023-12-16T06:34:24.901Z,11.20
2023-12-16T06:36:51.552Z,11.55
2023-12-16T06:39:18.191Z,11.25
2023-12-16T06:41:44.767Z,10.98
2023-12-16T06:44:11.397Z,10.88
2023-12-16T06:46:38.144Z,9.52
2023-12-16T06:49:04.997Z,10.85
2023-12-16T06:51:31.644Z,10.05
2023-12-16T06:53:58.274Z,10.18
2023-12-16T06:56:24.780Z,9.88
2023-12-16T06:58:51.345Z,8.70
2023-12-16T07:01:18.035Z,9.75
2023-12-16T07:03:44.686Z,10.20
2023-12-16T07:06:14.132Z,9.80
2023-12-16T07:08:44.356Z,10.77
2023-12-16T07:11:12.626Z,9.32
2023-12-16T07:13:39.305Z,9.55
2023-12-16T07:16:06.197Z,10.55
2023-12-16T07:18:32.907Z,9.65
2023-12-16T07:20:59.583Z,9.55
2023-12-16T07:23:29.012Z,11.52
2023-12-16T07:25:55.708Z,13.88
2023-12-16T07:28:22.840Z,12.88
2023-12-16T07:30:49.557Z,12.18
2023-12-16T07:33:16.346Z,13.23
2023-12-16T07:35:42.924Z,13.23
2023-12-16T07:38:09.785Z,13.40
2023-12-16T07:40:37.408Z,13.73
2023-12-16T07:43:04.445Z,12.98
2023-12-16T07:45:31.091Z,13.90
2023-12-16T07:47:57.758Z,13.40
2023-12-16T07:50:24.694Z,15.70
2023-12-16T07:52:51.318Z,15.18
2023-12-16T07:55:17.988Z,13.60
2023-12-16T07:57:44.529Z,14.02
2023-12-16T08:00:11.384Z,13.45
2023-12-16T08:02:37.981Z,13.82
2023-12-16T08:05:04.720Z,12.93
2023-12-16T08:07:31.413Z,12.82
2023-12-16T08:09:58.160Z,12.32
2023-12-16T08:12:24.836Z,12.85
2023-12-16T08:14:51.460Z,11.73
2023-12-16T08:17:18.148Z,11.07
2023-12-16T08:19:44.826Z,10.52
2023-12-16T08:22:11.611Z,11.48
2023-12-16T08:24:38.322Z,10.60
2023-12-16T08:27:05.012Z,11.45
2023-12-16T08:29:31.581Z,11.23
2023-12-16T08:31:58.182Z,10.90
2023-12-16T08:34:24.955Z,12.63
2023-12-16T08:36:51.553Z,10.30
2023-12-16T08:39:18.184Z,11.00
2023-12-16T08:41:45.108Z,10.95
2023-12-16T08:44:11.740Z,10.18
2023-12-16T08:46:41.648Z,12.93
2023-12-16T08:49:08.331Z,13.25
2023-12-16T08:51:34.917Z,11.68
2023-12-16T08:54:01.741Z,10.55
2023-12-16T08:56:28.324Z,10.95
2023-12-16T08:58:54.876Z,10.65
2023-12-16T09:01:21.615Z,10.45
2023-12-16T09:03:49.152Z,11.10
2023-12-16T09:06:16.071Z,10.25
2023-12-16T09:08:42.660Z,11.23
2023-12-16T09:11:10.542Z,11.02
2023-12-16T09:13:37.167Z,11.10
2023-12-16T09:16:04.466Z,10.48
2023-12-16T09:18:31.274Z,10.60
2023-12-16T09:20:57.973Z,10.35
2023-12-16T09:23:24.650Z,13.57
2023-12-16T09:25:51.313Z,13.88
2023-12-16T09:28:17.972Z,13.10
2023-12-16T09:30:44.684Z,11.77
2023-12-16T09:33:11.309Z,13.48
2023-12-16T09:35:38.238Z,11.05
2023-12-16T09:38:04.873Z,10.98
2023-12-16T09:40:31.474Z,15.07
2023-12-16T09:43:03.157Z,11.82
2023-12-16T09:45:29.927Z,10.00
2023-12-16T09:47:57.175Z,10.40
2023-12-16T09:50:23.928Z,11.85
2023-12-16T09:52:50.457Z,10.63
2023-12-16T09:55:17.203Z,9.48
2023-12-16T09:57:44.726Z,9.52
2023-12-16T10:00:13.994Z,8.55
2023-12-16T10:02:41.205Z,9.68
2023-12-16T10:05:08.739Z,10.73
2023-12-16T10:07:35.368Z,11.20
2023-12-16T10:10:02.027Z,12.65
2023-12-16T10:12:33.424Z,10.93
2023-12-16T10:15:00.337Z,10.93
2023-12-16T10:17:27.311Z,10.10
2023-12-16T10:19:53.886Z,10.25
2023-12-16T10:22:21.355Z,10.18
2023-12-16T10:24:48.098Z,9.55
2023-12-16T10:27:16.752Z,8.88
2023-12-16T10:29:54.019Z,8.82
2023-12-16T10:32:29.640Z,11.40
2023-12-16T10:34:57.433Z,9.75
2023-12-16T10:37:24.890Z,9.18
2023-12-16T10:39:51.743Z,11.57
2023-12-16T10:42:18.828Z,16.65
2023-12-16T10:44:45.545Z,98.72
2023-12-16T10:47:12.915Z,35.95
2023-12-16T10:49:43.911Z,13.82
2023-12-16T10:52:14.341Z,12.67
2023-12-16T10:54:41.767Z,11.00
2023-12-16T10:57:16.753Z,12.15
2023-12-16T10:59:45.083Z,12.15
2023-12-16T11:02:31.423Z,20.90
2023-12-16T11:05:11.139Z,27.20
2023-12-16T11:07:42.694Z,45.90
2023-12-16T11:12:36.944Z,16.42
2023-12-16T11:15:05.003Z,15.93
2023-12-16T11:17:34.521Z,15.80
2023-12-16T11:20:03.588Z,15.68
2023-12-16T11:22:30.357Z,13.75
2023-12-16T11:25:01.305Z,15.80
2023-12-16T11:27:28.381Z,14.43
2023-12-16T11:29:54.901Z,14.20
2023-12-16T11:32:22.867Z,14.98
2023-12-16T11:34:51.154Z,14.23
2023-12-16T11:37:36.354Z,13.88
2023-12-16T11:40:09.984Z,23.30
2023-12-16T11:42:58.436Z,26.30
2023-12-16T11:45:40.400Z,19.80
2023-12-16T11:50:35.460Z,18.30
2023-12-16T11:53:02.839Z,15.43
2023-12-16T11:55:29.401Z,25.17
2023-12-16T11:57:56.526Z,30.13
2023-12-16T12:00:23.511Z,27.85
2023-12-16T12:02:51.542Z,29.25
2023-12-16T12:05:19.252Z,23.58
2023-12-16T12:07:46.207Z,14.25
2023-12-16T12:10:13.179Z,17.20
2023-12-16T12:12:40.734Z,14.35
2023-12-16T12:15:09.193Z,14.27
2023-12-16T12:17:36.593Z,15.27
2023-12-16T12:20:04.636Z,13.88
2023-12-16T12:22:34.975Z,11.57
2023-12-16T12:25:01.857Z,24.25
2023-12-16T12:27:31.634Z,34.38
2023-12-16T12:30:08.371Z,41.90
2023-12-16T12:32:35.209Z,17.60
2023-12-16T12:35:08.276Z,14.82
2023-12-16T12:37:38.342Z,15.18
2023-12-16T12:40:06.673Z,15.30
2023-12-16T12:42:45.241Z,12.60
2023-12-16T12:45:23.126Z,24.80
2023-12-16T12:47:50.520Z,12.60
2023-12-16T12:50:21.217Z,11.30
2023-12-16T12:53:18.111Z,12.30
2023-12-16T12:55:34.394Z,10.75
2023-12-16T12:58:07.608Z,11.70
2023-12-16T13:00:42.295Z,11.80
2023-12-16T13:03:09.512Z,11.45
2023-12-16T13:05:36.340Z,11.95
2023-12-16T13:08:07.241Z,12.32
2023-12-16T13:10:34.398Z,12.00
2023-12-16T13:13:01.123Z,12.63
2023-12-16T13:15:52.412Z,12.13
2023-12-16T13:18:17.355Z,12.63
2023-12-16T13:20:47.241Z,24.23
2023-12-16T13:23:14.381Z,89.38
2023-12-16T13:25:41.487Z,31.70
2023-12-16T13:28:08.101Z,16.48
2023-12-16T13:30:35.242Z,12.48
2023-12-16T13:33:02.165Z,14.05
2023-12-16T13:35:29.358Z,20.92
2023-12-16T13:37:56.090Z,21.02
2023-12-16T13:40:22.736Z,20.80
2023-12-16T13:42:49.457Z,16.08
2023-12-16T13:45:16.340Z,26.55
2023-12-16T13:47:43.326Z,58.20
2023-12-16T13:50:11.072Z,25.55
2023-12-16T13:52:37.641Z,22.75
2023-12-16T13:55:06.019Z,18.98
2023-12-16T13:57:33.125Z,14.82
2023-12-16T13:59:59.913Z,14.40
2023-12-16T14:02:26.840Z,26.15
2023-12-16T14:04:53.486Z,25.85
2023-12-16T14:07:20.320Z,19.40
2023-12-16T14:09:46.980Z,15.32
2023-12-16T14:12:13.849Z,14.20
2023-12-16T14:14:40.486Z,15.68
2023-12-16T14:17:07.172Z,86.68
2023-12-16T14:19:35.275Z,40.83
2023-12-16T14:22:03.327Z,35.55
2023-12-16T14:24:29.973Z,24.25
2023-12-16T14:26:56.828Z,24.73
2023-12-16T14:29:23.457Z,21.48
2023-12-16T14:31:50.348Z,16.60
2023-12-16T14:34:18.209Z,21.20
2023-12-16T14:36:45.422Z,16.90
2023-12-16T14:39:12.104Z,15.85
2023-12-16T14:41:38.890Z,15.35
2023-12-16T14:44:05.858Z,16.35
2023-12-16T14:46:32.642Z,16.90
2023-12-16T14:48:59.384Z,15.07
2023-12-16T14:51:25.982Z,14.45
2023-12-16T14:53:52.635Z,15.50
2023-12-16T14:56:20.953Z,15.40
2023-12-16T14:58:48.015Z,15.40
2023-12-16T15:01:25.959Z,15.55
2023-12-16T15:03:54.237Z,16.38
2023-12-16T15:06:26.569Z,16.95
2023-12-16T15:08:57.757Z,17.40
2023-12-16T15:11:24.467Z,18.63
2023-12-16T15:13:50.993Z,18.00
2023-12-16T15:16:20.563Z,18.23
2023-12-16T15:18:48.181Z,17.88
2023-12-16T15:21:15.094Z,17.65
2023-12-16T15:23:41.826Z,16.52
2023-12-16T15:26:08.414Z,19.38
2023-12-16T15:28:35.063Z,17.35
2023-12-16T15:31:01.798Z,17.65
2023-12-16T15:33:28.789Z,16.55
2023-12-16T15:35:55.873Z,17.27
2023-12-16T15:38:22.881Z,19.15
2023-12-16T15:40:49.739Z,17.10
2023-12-16T15:43:16.523Z,31.35
2023-12-16T15:45:43.437Z,24.95
2023-12-16T15:48:10.121Z,19.67
2023-12-16T15:50:37.013Z,28.20
2023-12-16T15:53:05.379Z,18.77
2023-12-16T15:55:32.341Z,18.20
2023-12-16T15:57:59.908Z,19.02
2023-12-16T16:00:27.809Z,19.92
2023-12-16T16:02:55.807Z,18.70
2023-12-16T16:05:24.822Z,16.83
2023-12-16T16:07:52.339Z,28.83
2023-12-16T16:10:20.229Z,23.25
2023-12-16T16:12:47.307Z,21.35
2023-12-16T16:15:17.589Z,23.75
2023-12-16T16:17:46.465Z,19.95
2023-12-16T16:20:13.653Z,19.83
2023-12-16T16:22:40.560Z,18.17
2023-12-16T16:25:09.855Z,25.00
2023-12-16T16:27:37.261Z,22.67
2023-12-16T16:30:04.208Z,20.73
2023-12-16T16:32:31.000Z,19.60
2023-12-16T16:34:57.537Z,21.02
2023-12-16T16:37:25.368Z,20.75
2023-12-16T16:39:53.297Z,20.00
2023-12-16T16:42:19.809Z,21.13
2023-12-16T16:44:46.491Z,19.48
2023-12-16T16:47:13.167Z,39.05
2023-12-16T16:49:39.837Z,31.10
2023-12-16T16:52:06.914Z,31.92
2023-12-16T16:54:33.782Z,26.55
2023-12-16T16:57:00.441Z,25.20
2023-12-16T16:59:27.169Z,23.45
2023-12-16T17:01:54.196Z,24.60
2023-12-16T17:04:21.766Z,22.75
2023-12-16T17:06:48.499Z,23.13
2023-12-16T17:09:15.260Z,25.25
2023-12-16T17:11:42.347Z,24.60
2023-12-16T17:14:12.032Z,33.42
2023-12-16T17:16:39.393Z,31.42
2023-12-16T17:19:06.636Z,25.02
2023-12-16T17:21:33.372Z,23.75
2023-12-16T17:23:59.996Z,27.05
2023-12-16T17:26:27.142Z,27.13
2023-12-16T17:28:55.133Z,26.73
2023-12-16T17:31:22.871Z,26.83
2023-12-16T17:33:49.706Z,27.42
2023-12-16T17:36:17.051Z,24.80
2023-12-16T17:38:43.857Z,25.13
2023-12-16T17:41:10.562Z,42.03
2023-12-16T17:43:37.117Z,29.27
2023-12-16T17:46:04.440Z,40.38
2023-12-16T17:48:32.051Z,39.65
2023-12-16T17:50:58.792Z,35.60
2023-12-16T17:53:27.048Z,28.77
2023-12-16T17:55:53.959Z,34.72
2023-12-16T17:58:20.522Z,29.98
2023-12-16T18:00:47.327Z,32.42
2023-12-16T18:03:14.036Z,32.50
2023-12-16T18:05:40.700Z,29.05
2023-12-16T18:08:08.006Z,32.20
2023-12-16T18:10:35.075Z,30.10
2023-12-16T18:13:01.616Z,31.23
2023-12-16T18:15:28.276Z,32.28
2023-12-16T18:17:55.032Z,27.25
2023-12-16T18:20:28.237Z,24.83
2023-12-16T18:22:55.360Z,26.65
2023-12-16T18:25:22.181Z,27.27
2023-12-16T18:27:48.814Z,32.78
2023-12-16T18:30:16.581Z,26.80
2023-12-16T18:32:43.553Z,27.13
2023-12-16T18:35:12.129Z,27.65
2023-12-16T18:37:43.743Z,26.23
2023-12-16T18:40:16.159Z,28.65
2023-12-16T18:42:44.377Z,27.10
2023-12-16T18:45:11.114Z,28.00
2023-12-16T18:47:38.092Z,27.70
2023-12-16T18:50:05.262Z,28.98
2023-12-16T18:52:31.876Z,29.08
2023-12-16T18:54:58.501Z,28.38
2023-12-16T18:57:25.223Z,28.88
2023-12-16T18:59:52.574Z,30.77
2023-12-16T19:02:23.317Z,29.90
2023-12-16T19:04:50.826Z,30.33
2023-12-16T19:07:17.500Z,37.00
2023-12-16T19:09:44.818Z,46.47
2023-12-16T19:12:12.279Z,35.58
2023-12-16T19:14:41.350Z,32.55
2023-12-16T19:17:08.905Z,36.97
2023-12-16T19:19:43.437Z,32.90
2023-12-16T19:22:12.087Z,31.67
2023-12-16T19:24:38.660Z,32.78
2023-12-16T19:27:05.798Z,32.08
2023-12-16T19:29:32.854Z,32.35
2023-12-16T19:31:59.352Z,32.33
2023-12-16T19:34:26.255Z,51.08
2023-12-16T19:36:52.997Z,37.90
2023-12-16T19:39:23.002Z,39.08
2023-12-16T19:41:50.354Z,40.58
2023-12-16T19:44:17.097Z,38.08
2023-12-16T19:46:43.852Z,36.55
2023-12-16T19:49:11.221Z,33.33
2023-12-16T19:51:37.968Z,33.15
2023-12-16T19:54:04.697Z,30.98
2023-12-16T19:56:31.272Z,35.75
2023-12-16T19:58:57.884Z,44.03
2023-12-16T20:01:24.459Z,43.92
2023-12-16T20:03:51.180Z,40.97
2023-12-16T20:06:17.815Z,45.13
2023-12-16T20:08:44.457Z,46.15
2023-12-16T20:11:12.695Z,49.80
2023-12-16T20:13:40.094Z,55.72
2023-12-16T20:16:06.871Z,59.55
2023-12-16T20:18:33.808Z,55.75
2023-12-16T20:21:00.552Z,49.13
2023-12-16T20:23:27.213Z,51.15
2023-12-16T20:25:53.850Z,46.83
2023-12-16T20:28:20.488Z,49.50
2023-12-16T20:30:47.156Z,43.72
2023-12-16T20:33:14.055Z,42.60
2023-12-16T20:35:40.773Z,30.50
2023-12-16T20:38:27.308Z,39.25
2023-12-16T20:40:53.976Z,35.08
2023-12-16T20:43:20.709Z,34.10
2023-12-16T20:45:48.892Z,40.25
2023-12-16T20:48:15.634Z,39.28
2023-12-16T20:50:42.324Z,44.65
2023-12-16T20:53:08.872Z,41.15
2023-12-16T20:55:35.937Z,50.80
2023-12-16T20:58:03.614Z,47.15
2023-12-16T21:00:30.284Z,46.05
2023-12-16T21:02:57.111Z,49.05
2023-12-16T21:05:24.738Z,42.05
2023-12-16T21:07:51.422Z,46.15
2023-12-16T21:10:18.148Z,48.28
2023-12-16T21:12:46.124Z,43.40
2023-12-16T21:15:12.848Z,42.53
2023-12-16T21:17:40.008Z,38.63
2023-12-16T21:20:09.286Z,39.58
2023-12-16T21:22:36.404Z,42.47
2023-12-16T21:25:03.253Z,40.75
2023-12-16T21:27:29.815Z,46.97
2023-12-16T21:29:56.662Z,72.55
2023-12-16T21:32:24.486Z,66.55
2023-12-16T21:34:51.376Z,70.82
2023-12-16T21:37:18.671Z,65.38
2023-12-16T21:39:45.285Z,60.85
2023-12-16T21:42:11.941Z,61.40
2023-12-16T21:44:38.703Z,64.07
2023-12-16T21:47:05.408Z,63.03
2023-12-16T21:49:32.296Z,69.97
2023-12-16T21:51:59.010Z,76.57
2023-12-16T21:54:25.598Z,65.13
2023-12-16T21:56:52.362Z,62.42
2023-12-16T21:59:19.824Z,59.92
2023-12-16T22:01:46.495Z,63.05
2023-12-16T22:04:13.265Z,72.82
2023-12-16T22:06:39.976Z,74.45
2023-12-16T22:09:06.682Z,80.70
2023-12-16T22:11:33.291Z,85.68
2023-12-16T22:13:59.872Z,79.55
2023-12-16T22:16:26.446Z,72.47
2023-12-16T22:18:53.179Z,75.40
2023-12-16T22:21:20.045Z,65.95
2023-12-16T22:23:46.756Z,66.07
2023-12-16T22:26:13.288Z,67.95
2023-12-16T22:28:39.775Z,68.72
2023-12-16T22:31:06.418Z,60.70
2023-12-16T22:33:33.152Z,59.25
2023-12-16T22:35:59.859Z,62.67
2023-12-16T22:38:26.617Z,63.92
2023-12-16T22:40:55.159Z,64.90
2023-12-16T22:43:28.438Z,61.15
2023-12-16T22:45:58.218Z,62.10
2023-12-16T22:48:25.368Z,61.40
2023-12-16T22:50:52.499Z,59.97
2023-12-16T22:53:19.310Z,60.47
2023-12-16T22:55:46.619Z,58.28
2023-12-16T22:58:13.366Z,60.95
2023-12-16T23:00:40.005Z,55.40
2023-12-16T23:03:06.706Z,57.83
2023-12-16T23:05:33.785Z,58.65
2023-12-16T23:08:00.433Z,60.15
2023-12-16T23:10:27.076Z,57.80
2023-12-16T23:12:54.955Z,54.78
2023-12-16T23:15:21.615Z,58.97
2023-12-16T23:17:48.486Z,55.00
2023-12-16T23:20:15.159Z,57.00
2023-12-16T23:22:41.773Z,59.65
2023-12-16T23:25:11.226Z,59.38
2023-12-16T23:27:38.293Z,55.90
2023-12-16T23:30:05.866Z,62.63
2023-12-16T23:32:32.604Z,66.65
2023-12-16T23:35:00.429Z,68.70
2023-12-16T23:37:27.017Z,65.90
2023-12-16T23:39:53.656Z,65.32
2023-12-16T23:42:20.386Z,58.55
2023-12-16T23:44:47.036Z,67.68
2023-12-16T23:47:13.647Z,60.13
2023-12-16T23:49:40.603Z,55.38
2023-12-16T23:52:07.203Z,54.17
2023-12-16T23:54:33.804Z,54.65
2023-12-16T23:57:00.415Z,50.58
2023-12-16T23:59:27.029Z,57.42
